Time;durP1;ratioP1;P1;durP2;ratioP2;P2;SDS_P1;SDS_P2;PMS_P1;PMS_P2;Temp;Humidity;BMP_temperature;BMP_pressure;BME280_temperature;BME280_humidity;BME280_pressure;Samples;Min_cycle;Max_cycle;Signal;HPM_P1;HPM_P2
2022/05/05 00:00:07;;;;;;;22.88;15.68;;;;;;;9.46;100.00;99133.84;5127895;27;20039;-78
2022/05/05 00:02:34;;;;;;;26.52;16.48;;;;;;;9.68;100.00;99159.34;5129631;27;20051;-78
2022/05/05 00:05:00;;;;;;;25.83;17.83;;;;;;;9.57;100.00;99129.88;5128715;27;20100;-78
2022/05/05 00:07:27;;;;;;;27.17;18.23;;;;;;;9.70;100.00;99145.59;5128309;27;20051;-77
2022/05/05 00:09:55;;;;;;;27.15;18.48;;;;;;;9.64;100.00;99155.28;5127664;27;20051;-77
2022/05/05 00:15:07;;;;;;;27.73;16.67;;;;;;;9.64;100.00;99130.88;5129837;27;20066;-77
2022/05/05 00:17:34;;;;;;;24.60;16.52;;;;;;;9.64;100.00;99130.03;5133857;27;20058;-77
2022/05/05 00:20:00;;;;;;;28.02;17.08;;;;;;;9.62;100.00;99141.06;5130929;27;20092;-77
2022/05/05 00:22:27;;;;;;;22.40;15.98;;;;;;;9.56;100.00;99136.34;5128010;27;20695;-77
2022/05/05 00:24:55;;;;;;;26.95;16.27;;;;;;;9.68;100.00;99172.06;5121641;27;20042;-77
2022/05/05 00:27:22;;;;;;;21.70;16.17;;;;;;;9.54;100.00;99143.81;5134363;27;20051;-77
2022/05/05 00:29:51;;;;;;;22.73;15.27;;;;;;;9.76;100.00;99180.16;5130153;27;20047;-78
2022/05/05 00:32:17;;;;;;;22.55;15.68;;;;;;;9.81;100.00;99177.75;5133801;27;20073;-77
2022/05/05 00:34:44;;;;;;;20.23;14.50;;;;;;;9.64;100.00;99158.00;5129301;27;20401;-77
2022/05/05 00:37:10;;;;;;;21.63;15.35;;;;;;;9.63;100.00;99148.16;5128821;27;20077;-77
2022/05/05 00:39:37;;;;;;;18.40;14.07;;;;;;;9.48;100.00;99134.50;5131536;27;20062;-77
2022/05/05 00:42:11;;;;;;;20.88;14.63;;;;;;;9.50;100.00;99137.91;5133533;27;20493;-78
2022/05/05 00:44:38;;;;;;;18.15;14.63;;;;;;;9.51;100.00;99128.72;5130426;27;20482;-78
2022/05/05 00:47:05;;;;;;;23.67;16.23;;;;;;;9.45;100.00;99117.75;5127563;27;20058;-77
2022/05/05 00:49:31;;;;;;;23.05;16.85;;;;;;;9.40;100.00;99118.28;5132399;27;20043;-78
2022/05/05 00:51:59;;;;;;;23.05;16.73;;;;;;;9.41;100.00;99127.28;5133955;27;20674;-77
2022/05/05 00:54:26;;;;;;;22.00;15.02;;;;;;;9.41;100.00;99127.28;5131786;27;20092;-78
2022/05/05 00:56:52;;;;;;;26.05;16.55;;;;;;;9.52;100.00;99154.84;5131334;27;20051;-77
2022/05/05 00:59:20;;;;;;;22.27;16.67;;;;;;;9.48;100.00;99139.94;5123039;27;20398;-78
2022/05/05 01:01:47;;;;;;;23.30;16.88;;;;;;;9.69;100.00;99161.03;5130375;27;20043;-78
2022/05/05 01:04:14;;;;;;;25.15;17.45;;;;;;;9.51;100.00;99125.19;5130991;27;20051;-77
2022/05/05 01:06:41;;;;;;;28.52;18.50;;;;;;;9.56;100.00;99115.47;5134760;27;20047;-78
2022/05/05 01:09:08;;;;;;;24.88;17.48;;;;;;;9.71;100.00;99141.84;5129676;27;20504;-77
2022/05/05 01:11:34;;;;;;;25.98;17.60;;;;;;;9.48;100.00;99123.66;5129331;27;20054;-77
2022/05/05 01:14:01;;;;;;;24.35;16.45;;;;;;;9.52;100.00;99119.56;5127880;27;20047;-77
2022/05/05 01:16:29;;;;;;;27.15;17.58;;;;;;;9.56;100.00;99129.06;5130797;27;20043;-78
2022/05/05 01:18:56;;;;;;;27.50;18.23;;;;;;;9.57;100.00;99138.03;5129101;27;20047;-77
2022/05/05 01:21:24;;;;;;;28.00;19.33;;;;;;;9.57;100.00;99141.59;5131926;27;20039;-77
2022/05/05 01:23:51;;;;;;;26.58;18.40;;;;;;;9.48;100.00;99128.25;5131099;27;20055;-78
2022/05/05 01:29:03;;;;;;;28.80;18.63;;;;;;;9.60;100.00;99153.97;5124845;27;20088;-77
2022/05/05 01:31:29;;;;;;;24.38;18.25;;;;;;;9.61;100.00;99149.38;5131289;27;20058;-77
2022/05/05 01:33:56;;;;;;;27.15;17.90;;;;;;;9.67;100.00;99162.25;5128085;27;20058;-78
2022/05/05 01:36:24;;;;;;;27.50;18.10;;;;;;;9.50;100.00;99132.50;5128985;27;20055;-78
2022/05/05 01:38:50;;;;;;;30.98;18.70;;;;;;;9.53;100.00;99134.84;5129717;27;20055;-77
2022/05/05 01:41:16;;;;;;;25.05;17.92;;;;;;;9.49;100.00;99124.53;5127026;27;20047;-77
2022/05/05 01:43:45;;;;;;;28.45;18.83;;;;;;;9.53;100.00;99144.88;5128966;27;20043;-77
2022/05/05 01:46:14;;;;;;;33.13;19.80;;;;;;;9.55;100.00;99140.09;5126330;27;20047;-77
2022/05/05 01:48:40;;;;;;;30.15;18.42;;;;;;;9.59;100.00;99140.56;5127594;27;20055;-77
2022/05/05 01:51:07;;;;;;;24.63;17.42;;;;;;;9.68;100.00;99156.63;5128034;27;20047;-77
2022/05/05 01:53:37;;;;;;;24.55;17.40;;;;;;;9.60;100.00;99142.25;5129387;27;20039;-79
2022/05/05 01:56:08;;;;;;;26.10;16.55;;;;;;;9.52;100.00;99143.16;5131385;27;20065;-77
2022/05/05 01:58:34;;;;;;;23.80;15.75;;;;;;;9.51;100.00;99142.28;5126684;27;20718;-78
2022/05/05 02:01:01;;;;;;;24.85;16.23;;;;;;;9.49;100.00;99146.22;5129807;27;20045;-77
2022/05/05 02:03:28;;;;;;;27.20;18.13;;;;;;;9.46;100.00;99138.44;5129769;27;20541;-77
2022/05/05 02:05:54;;;;;;;27.63;17.05;;;;;;;9.46;100.00;99152.03;5124988;27;20054;-77
2022/05/05 02:08:21;;;;;;;23.77;16.70;;;;;;;9.46;100.00;99143.88;5129223;27;20066;-78
2022/05/05 02:10:49;;;;;;;26.27;17.75;;;;;;;9.42;100.00;99137.09;5130319;27;20051;-77
2022/05/05 02:13:15;;;;;;;22.25;15.48;;;;;;;9.56;100.00;99166.22;5129344;27;20058;-77
2022/05/05 02:15:42;;;;;;;25.90;16.98;;;;;;;9.60;100.00;99158.53;5129705;27;20059;-78
2022/05/05 02:18:10;;;;;;;23.27;16.20;;;;;;;9.47;100.00;99145.53;5129850;27;20047;-77
2022/05/05 02:20:37;;;;;;;23.27;16.05;;;;;;;9.42;100.00;99145.25;5130762;27;20054;-77
2022/05/05 02:23:04;;;;;;;19.95;14.70;;;;;;;9.38;100.00;99145.59;5127303;27;20050;-77
2022/05/05 02:25:31;;;;;;;22.92;15.93;;;;;;;9.45;100.00;99159.28;5128445;27;20050;-77
2022/05/05 02:27:59;;;;;;;20.95;15.18;;;;;;;9.33;100.00;99156.16;5127978;27;20055;-78
2022/05/05 02:30:27;;;;;;;19.58;14.43;;;;;;;9.34;100.00;99159.72;5127769;27;20043;-77
2022/05/05 02:32:54;;;;;;;18.85;14.00;;;;;;;9.46;100.00;99173.72;5130497;27;20381;-77
2022/05/05 02:35:21;;;;;;;25.10;14.27;;;;;;;9.32;100.00;99156.31;5122552;27;20107;-77
2022/05/05 02:40:32;;;;;;;22.95;14.38;;;;;;;9.18;100.00;99179.59;5131354;27;20069;-77
2022/05/05 02:43:00;;;;;;;20.95;13.38;;;;;;;8.92;100.00;99142.75;5132847;27;20046;-77
2022/05/05 02:45:27;;;;;;;20.25;13.60;;;;;;;8.85;100.00;99150.75;5131905;27;20080;-77
2022/05/05 02:47:54;;;;;;;21.67;15.00;;;;;;;8.95;100.00;99158.66;5130113;27;20047;-77
2022/05/05 02:50:22;;;;;;;20.73;15.77;;;;;;;8.83;100.00;99141.94;5121698;27;20043;-77
2022/05/05 02:52:48;;;;;;;21.70;15.02;;;;;;;9.09;100.00;99183.38;5122383;27;20047;-77
2022/05/05 02:55:14;;;;;;;22.80;15.80;;;;;;;8.93;100.00;99170.72;5119913;27;20051;-77
2022/05/05 02:57:40;;;;;;;24.55;16.25;;;;;;;9.09;100.00;99177.94;5127661;27;20062;-77
2022/05/05 03:00:12;;;;;;;24.58;15.82;;;;;;;8.89;100.00;99148.53;5126492;27;20383;-77
2022/05/05 03:02:38;;;;;;;24.88;17.23;;;;;;;8.94;100.00;99143.44;5126557;27;20062;-77
2022/05/05 03:05:06;;;;;;;24.58;16.60;;;;;;;8.92;100.00;99158.19;5128205;27;20057;-77
2022/05/05 03:07:32;;;;;;;22.10;15.40;;;;;;;8.94;100.00;99158.84;5128464;27;20054;-77
2022/05/05 03:09:59;;;;;;;25.13;17.23;;;;;;;8.91;100.00;99180.88;5124174;27;20496;-77
2022/05/05 03:12:25;;;;;;;22.90;15.32;;;;;;;8.72;100.00;99153.16;5122116;27;20059;-77
2022/05/05 03:14:52;;;;;;;25.52;17.13;;;;;;;8.82;100.00;99178.22;5122106;27;20050;-77
2022/05/05 03:17:20;;;;;;;27.17;16.88;;;;;;;8.64;100.00;99139.59;5130487;27;20039;-77
2022/05/05 03:19:46;;;;;;;22.55;14.85;;;;;;;8.73;100.00;99146.72;5127962;27;20351;-77
2022/05/05 03:22:13;;;;;;;20.17;14.38;;;;;;;8.77;100.00;99161.59;5125253;27;20050;-77
2022/05/05 03:24:40;;;;;;;25.45;14.65;;;;;;;8.72;100.00;99171.28;5126307;27;20062;-77
2022/05/05 03:27:06;;;;;;;18.08;14.00;;;;;;;8.65;100.00;99187.38;5130014;27;20251;-77
2022/05/05 03:29:33;;;;;;;19.50;14.30;;;;;;;8.61;100.00;99189.59;5125777;27;20051;-77
2022/05/05 03:32:00;;;;;;;20.50;13.63;;;;;;;8.38;100.00;99158.78;5127214;27;20491;-77
2022/05/05 03:34:28;;;;;;;18.33;11.75;;;;;;;8.36;100.00;99166.22;5128705;27;20047;-77
2022/05/05 03:36:54;;;;;;;23.48;13.57;;;;;;;8.41;100.00;99174.69;5131543;27;20066;-77
2022/05/05 03:39:21;;;;;;;18.65;13.02;;;;;;;8.62;100.00;99188.56;5128877;27;20053;-77
2022/05/05 03:41:47;;;;;;;17.90;11.75;;;;;;;8.59;100.00;99194.31;5132247;27;21432;-77
2022/05/05 03:44:14;;;;;;;16.38;11.25;;;;;;;8.46;100.00;99180.44;5127814;27;20051;-77
2022/05/05 03:46:40;;;;;;;16.73;11.02;;;;;;;8.36;100.00;99164.34;5128699;27;20050;-78
2022/05/05 03:49:07;;;;;;;20.92;12.15;;;;;;;8.41;100.00;99193.63;5120474;27;20414;-77
2022/05/05 03:51:35;;;;;;;18.90;13.25;;;;;;;8.26;100.00;99161.81;5131291;27;20059;-77
2022/05/05 03:54:01;;;;;;;20.20;13.38;;;;;;;8.34;100.00;99166.41;5133368;27;20350;-77
2022/05/05 03:56:28;;;;;;;20.05;13.10;;;;;;;8.36;100.00;99166.22;5128783;27;20047;-77
2022/05/05 03:58:54;;;;;;;20.80;12.65;;;;;;;8.22;100.00;99168.59;5130119;27;20486;-77
2022/05/05 04:01:21;;;;;;;21.98;13.38;;;;;;;8.24;100.00;99179.25;5129705;27;20047;-77
2022/05/05 04:03:47;;;;;;;21.50;14.07;;;;;;;8.52;100.00;99203.31;5131170;27;20054;-77
2022/05/05 04:06:16;;;;;;;18.98;13.02;;;;;;;8.52;100.00;99209.59;5128212;27;20043;-77
2022/05/05 04:08:44;;;;;;;20.27;13.63;;;;;;;8.52;100.00;99196.06;5133392;27;20082;-77
2022/05/05 04:11:11;;;;;;;20.85;13.90;;;;;;;8.42;100.00;99188.06;5129183;27;20482;-77
2022/05/05 04:13:39;;;;;;;20.92;14.10;;;;;;;8.76;100.00;99211.44;5132295;27;20051;-77
2022/05/05 04:16:06;;;;;;;19.45;13.55;;;;;;;8.81;100.00;99219.88;5132519;27;20043;-77
2022/05/05 04:18:33;;;;;;;20.77;13.80;;;;;;;8.67;100.00;99197.03;5133115;27;20047;-77
2022/05/05 04:20:59;;;;;;;18.90;13.27;;;;;;;8.78;100.00;99203.13;5128617;27;20047;-77
2022/05/05 04:23:26;;;;;;;17.95;13.27;;;;;;;8.81;100.00;99195.47;5130170;27;20047;-77
2022/05/05 04:25:54;;;;;;;20.23;13.93;;;;;;;8.78;100.00;99187.69;5127063;27;20134;-77
2022/05/05 04:28:22;;;;;;;19.40;13.57;;;;;;;8.86;100.00;99197.66;5127642;27;20055;-77
2022/05/05 04:30:49;;;;;;;20.80;14.13;;;;;;;8.92;100.00;99207.81;5126357;27;20042;-77
2022/05/05 04:33:15;;;;;;;20.98;14.77;;;;;;;8.83;100.00;99188.00;5131847;27;20043;-77
2022/05/05 04:35:42;;;;;;;22.23;14.90;;;;;;;9.11;100.00;99219.28;5127780;27;20038;-77
2022/05/05 04:38:09;;;;;;;23.45;15.38;;;;;;;8.94;100.00;99191.38;5132943;27;20069;-77
2022/05/05 04:40:36;;;;;;;26.63;17.63;;;;;;;8.95;100.00;99202.03;5131215;27;20134;-77
2022/05/05 04:43:03;;;;;;;24.48;16.02;;;;;;;9.10;100.00;99214.91;5128339;27;20050;-77
2022/05/05 04:45:30;;;;;;;27.42;17.10;;;;;;;9.13;100.00;99207.25;5128618;27;20043;-77
2022/05/05 04:47:57;;;;;;;25.58;16.95;;;;;;;9.17;100.00;99205.06;5131962;27;20062;-77
2022/05/05 04:50:24;;;;;;;28.33;17.42;;;;;;;9.25;100.00;99226.72;5129529;27;20063;-77
2022/05/05 04:52:50;;;;;;;26.95;17.33;;;;;;;9.32;100.00;99233.13;5128403;27;20047;-77
2022/05/05 04:55:17;;;;;;;26.20;17.15;;;;;;;9.27;100.00;99219.22;5130239;27;20199;-77
2022/05/05 04:57:44;;;;;;;25.00;16.45;;;;;;;9.37;100.00;99222.59;5126583;27;20035;-77
2022/05/05 05:00:13;;;;;;;24.35;14.75;;;;;;;9.45;100.00;99215.44;5121573;27;20043;-77
2022/05/05 05:02:39;;;;;;;20.35;14.25;;;;;;;9.67;100.00;99240.97;5127710;27;20050;-77
2022/05/05 05:05:06;;;;;;;22.55;15.40;;;;;;;9.60;100.00;99229.94;5123312;27;20044;-77
2022/05/05 05:07:33;;;;;;;25.23;15.00;;;;;;;9.49;100.00;99214.06;5129077;27;20039;-77
2022/05/05 05:10:00;;;;;;;22.00;14.30;;;;;;;9.72;100.00;99246.69;5125522;27;20043;-77
2022/05/05 05:12:26;;;;;;;21.30;14.38;;;;;;;9.60;100.00;99215.53;5128243;27;20046;-77
2022/05/05 05:14:53;;;;;;;20.02;14.50;;;;;;;9.72;100.00;99244.81;5126871;27;20410;-77
2022/05/05 05:17:20;;;;;;;22.50;14.95;;;;;;;9.71;100.00;99226.00;5123749;27;20046;-78
2022/05/05 05:19:47;;;;;;;27.70;15.38;;;;;;;9.82;100.00;99228.31;5132769;27;20402;-77
2022/05/05 05:22:13;;;;;;;22.33;15.10;;;;;;;9.85;100.00;99235.28;5130640;27;20062;-77
2022/05/05 05:24:41;;;;;;;21.98;13.93;;;;;;;9.86;100.00;99237.81;5131285;27;20050;-78
2022/05/05 05:27:08;;;;;;;21.45;14.68;;;;;;;10.08;100.00;99260.56;5132506;27;20047;-77
2022/05/05 05:29:35;;;;;;;18.80;13.52;;;;;;;10.19;100.00;99264.78;5134079;27;20133;-77
2022/05/05 05:32:01;;;;;;;19.90;14.02;;;;;;;10.20;100.00;99262.88;5129724;27;20057;-77
2022/05/05 05:34:29;;;;;;;19.65;13.35;;;;;;;10.17;100.00;99244.22;5121840;27;20055;-77
2022/05/05 05:36:55;;;;;;;20.05;14.02;;;;;;;10.32;100.00;99247.84;5134404;27;20058;-77
2022/05/05 05:39:22;;;;;;;19.48;13.38;;;;;;;10.28;100.00;99235.66;5132761;27;20075;-77
2022/05/05 05:41:49;;;;;;;19.70;13.25;;;;;;;10.22;100.00;99236.38;5133165;27;20054;-77
2022/05/05 05:44:17;;;;;;;23.58;14.73;;;;;;;10.36;100.00;99253.81;5126528;27;20051;-77
2022/05/05 05:46:43;;;;;;;21.00;13.07;;;;;;;10.22;100.00;99242.69;5128742;27;20046;-77
2022/05/05 05:49:10;;;;;;;18.98;13.23;;;;;;;10.30;100.00;99260.78;5128596;27;20073;-77
2022/05/05 05:51:38;;;;;;;19.70;14.15;;;;;;;10.33;100.00;99244.16;5128506;27;20515;-77
2022/05/05 05:54:05;;;;;;;20.25;14.68;;;;;;;10.54;100.00;99257.06;5131201;27;20054;-77
2022/05/05 05:56:31;;;;;;;29.40;13.65;;;;;;;10.51;100.00;99235.69;5123733;27;20132;-77
2022/05/05 05:58:58;;;;;;;18.17;13.38;;;;;;;10.56;100.00;99262.31;5120399;27;20457;-77
2022/05/05 06:03:53;;;;;;;17.65;13.27;;;;;;;10.59;100.00;99264.66;5125107;27;20394;-78
2022/05/05 06:04:10;;;;;;;18.90;12.98;;;;;;;10.58;100.00;99252.09;5125417;27;20058;-77
2022/05/05 06:06:41;;;;;;;18.38;12.20;;;;;;;10.63;100.00;99253.25;5128013;27;20055;-77
2022/05/05 06:09:07;;;;;;;23.70;14.20;;;;;;;10.57;100.00;99236.84;5133490;27;20050;-77
2022/05/05 06:11:35;;;;;;;20.13;14.05;;;;;;;10.54;100.00;99250.78;5132436;27;21091;-77
2022/05/05 06:14:04;;;;;;;20.70;14.65;;;;;;;10.78;100.00;99291.34;5125758;27;20501;-77
2022/05/05 06:16:31;;;;;;;19.00;14.00;;;;;;;10.75;100.00;99272.69;5122075;27;20051;-78
2022/05/05 06:18:57;;;;;;;18.88;13.48;;;;;;;10.89;100.00;99281.06;5131847;27;20050;-77
2022/05/05 06:21:24;;;;;;;19.55;14.60;;;;;;;10.89;100.00;99262.03;5132235;27;20051;-78
2022/05/05 06:23:51;;;;;;;20.98;14.50;;;;;;;10.87;100.00;99269.50;5128630;27;20043;-78
2022/05/05 06:26:18;;;;;;;22.08;15.77;;;;;;;11.11;100.00;99291.06;5129886;27;20050;-77
2022/05/05 06:28:45;;;;;;;19.75;13.55;;;;;;;11.02;100.00;99289.44;5130044;27;20053;-77
2022/05/05 06:31:12;;;;;;;20.30;14.48;;;;;;;11.03;100.00;99263.91;5112312;28;20043;-77
2022/05/05 06:33:39;;;;;;;21.40;14.60;;;;;;;11.12;100.00;99291.88;5128899;27;20079;-77
2022/05/05 06:36:08;;;;;;;19.52;14.20;;;;;;;10.94;100.00;99282.22;5132385;27;20055;-77
2022/05/05 06:38:34;;;;;;;20.35;14.02;;;;;;;11.18;100.00;99301.19;5127047;27;20055;-77
2022/05/05 06:41:02;;;;;;;18.42;13.57;;;;;;;11.20;100.00;99300.00;5132455;27;20070;-77
2022/05/05 06:43:29;;;;;;;23.65;13.52;;;;;;;11.07;100.00;99280.72;5130749;27;20074;-77
2022/05/05 06:45:56;;;;;;;19.70;13.50;;;;;;;11.19;100.00;99297.44;5130296;27;20102;-77
2022/05/05 06:48:22;;;;;;;18.45;13.52;;;;;;;11.29;100.00;99284.41;5132005;27;20047;-77
2022/05/05 06:50:49;;;;;;;19.33;12.00;;;;;;;11.27;100.00;99295.47;5131534;27;20062;-77
2022/05/05 06:53:15;;;;;;;20.83;13.63;;;;;;;11.40;100.00;99304.88;5119379;27;20054;-77
2022/05/05 06:55:42;;;;;;;17.48;13.88;;;;;;;11.40;100.00;99302.16;5130754;27;20058;-77
2022/05/05 06:58:10;;;;;;;19.02;13.35;;;;;;;11.49;100.00;99310.03;5131477;27;20077;-78
2022/05/05 07:03:21;;;;;;;19.35;13.00;;;;;;;11.50;100.00;99319.91;5150831;27;20062;-78
2022/05/05 07:05:46;;;;;;;18.00;13.23;;;;;;;11.59;100.00;99320.66;5139902;27;20486;-78
2022/05/05 07:08:13;;;;;;;19.23;12.57;;;;;;;11.64;100.00;99323.66;5126242;27;20054;-78
2022/05/05 07:10:53;;;;;;;18.85;13.48;;;;;;;11.73;100.00;99320.81;5121009;27;20055;-78
2022/05/05 07:13:22;;;;;;;43.33;15.27;;;;;;;11.59;100.00;99309.78;5110280;28;20472;-78
2022/05/05 07:15:49;;;;;;;19.15;13.48;;;;;;;11.61;100.00;99296.81;5132935;27;20065;-78
2022/05/05 07:18:16;;;;;;;19.13;13.07;;;;;;;11.88;100.00;99321.69;5151522;27;20042;-78
2022/05/05 07:20:43;;;;;;;19.20;12.88;;;;;;;12.03;100.00;99333.44;5144832;27;20104;-78
2022/05/05 07:23:13;;;;;;;16.55;11.88;;;;;;;11.98;100.00;99333.16;5130113;27;20138;-78
2022/05/05 07:25:41;;;;;;;21.17;13.80;;;;;;;12.03;100.00;99321.69;5130152;27;20051;-78
2022/05/05 07:28:08;;;;;;;16.13;12.70;;;;;;;12.15;100.00;99335.66;5130175;28;20047;-78
2022/05/05 07:30:36;;;;;;;22.63;14.25;;;;;;;12.21;100.00;99329.47;5131623;28;20059;-78
2022/05/05 07:33:04;;;;;;;18.17;12.77;;;;;;;12.10;100.00;99332.66;5130363;28;20047;-78
2022/05/05 07:35:31;;;;;;;17.33;12.82;;;;;;;11.90;100.00;99322.31;5130821;27;20047;-78
2022/05/05 07:37:57;;;;;;;21.73;13.93;;;;;;;12.12;100.00;99317.81;5130933;27;20054;-78
2022/05/05 07:40:24;;;;;;;18.13;13.20;;;;;;;12.33;100.00;99329.78;5122268;28;20513;-78
2022/05/05 07:42:50;;;;;;;16.75;13.93;;;;;;;12.33;100.00;99307.97;5118296;28;20047;-78
2022/05/05 07:45:17;;;;;;;19.48;13.50;;;;;;;12.56;100.00;99335.09;5111212;28;20052;-78
2022/05/05 07:47:44;;;;;;;20.02;13.98;;;;;;;12.60;100.00;99302.81;5110595;28;20044;-77
2022/05/05 07:50:11;;;;;;;21.80;14.82;;;;;;;12.60;100.00;99309.13;5118767;28;20047;-77
2022/05/05 07:52:38;;;;;;;20.95;13.75;;;;;;;12.80;100.00;99327.56;5137948;27;20054;-78
2022/05/05 07:55:05;;;;;;;17.73;14.02;;;;;;;12.92;100.00;99323.25;5130139;28;20053;-78
2022/05/05 07:57:32;;;;;;;17.58;13.00;;;;;;;12.72;100.00;99329.38;5127009;27;20044;-78
2022/05/05 07:59:58;;;;;;;16.20;12.48;;;;;;;12.60;100.00;99314.56;5128581;28;20054;-78
2022/05/05 08:02:25;;;;;;;20.15;14.45;;;;;;;12.78;100.00;99329.63;5109624;28;20054;-78
2022/05/05 08:04:53;;;;;;;16.13;12.52;;;;;;;12.98;100.00;99338.84;5113884;27;20038;-78
2022/05/05 08:07:20;;;;;;;17.67;12.75;;;;;;;13.04;100.00;99350.88;5123515;28;20047;-78
2022/05/05 08:09:46;;;;;;;20.63;13.30;;;;;;;13.08;100.00;99344.81;5129367;27;20047;-77
2022/05/05 08:12:15;;;;;;;17.30;12.25;;;;;;;12.99;100.00;99346.00;5122011;28;20046;-77
2022/05/05 08:14:41;;;;;;;19.20;13.25;;;;;;;12.88;100.00;99332.88;5130309;28;20103;-77
2022/05/05 08:17:08;;;;;;;20.13;12.98;;;;;;;13.06;100.00;99325.03;5119857;28;20047;-77
2022/05/05 08:19:34;;;;;;;15.85;12.88;;;;;;;13.25;100.00;99350.00;5132879;27;20051;-77
2022/05/05 08:22:03;;;;;;;17.92;13.38;;;;;;;13.22;100.00;99358.59;5151356;27;20049;-77
2022/05/05 08:30:01;;;;;;;18.00;14.20;;;;;;;12.97;100.00;99325.41;5155285;27;20057;-77
2022/05/05 08:32:29;;;;;;;22.25;13.98;;;;;;;13.12;100.00;99337.06;5150577;27;20058;-78
2022/05/05 08:34:55;;;;;;;20.08;12.75;;;;;;;13.19;100.00;99378.09;5129010;27;20092;-78
2022/05/05 08:37:23;;;;;;;18.83;13.35;;;;;;;13.16;100.00;99378.44;5125829;27;20051;-78
2022/05/05 08:39:50;;;;;;;17.45;12.93;;;;;;;13.16;100.00;99356.63;5134249;27;20069;-78
2022/05/05 08:42:16;;;;;;;16.90;13.95;;;;;;;13.30;100.00;99371.25;5126331;27;20052;-78
2022/05/05 08:44:43;;;;;;;18.20;13.60;;;;;;;13.52;100.00;99372.91;5113539;28;20479;-78
2022/05/05 08:47:11;;;;;;;17.80;14.20;;;;;;;13.44;100.00;99375.78;5127870;27;20043;-77
2022/05/05 08:49:37;;;;;;;16.85;13.60;;;;;;;13.50;100.00;99353.13;5134272;27;20093;-78
2022/05/05 08:52:08;;;;;;;19.20;14.73;;;;;;;13.48;100.00;99376.25;5123320;27;20092;-78
2022/05/05 08:54:36;;;;;;;16.30;13.00;;;;;;;13.44;100.00;99348.47;5127597;27;20468;-78
2022/05/05 08:57:02;;;;;;;19.02;14.52;;;;;;;13.57;100.00;99359.50;5134139;27;20046;-78
2022/05/05 08:59:29;;;;;;;19.63;13.57;;;;;;;13.70;100.00;99377.00;5119373;27;20060;-78
2022/05/05 09:01:55;;;;;;;20.08;14.55;;;;;;;13.74;100.00;99357.28;5113496;28;20047;-78
2022/05/05 09:04:22;;;;;;;18.92;14.23;;;;;;;13.64;100.00;99359.56;5112844;28;20051;-78
2022/05/05 09:06:51;;;;;;;22.27;15.75;;;;;;;13.66;100.00;99349.25;5130978;27;20055;-78
2022/05/05 09:09:25;;;;;;;20.35;15.70;;;;;;;13.76;100.00;99377.06;5125648;27;20058;-78
2022/05/05 09:12:10;;;;;;;19.60;15.02;;;;;;;13.62;100.00;99372.56;5133161;27;20055;-78
2022/05/05 09:14:38;;;;;;;23.27;14.35;;;;;;;13.67;100.00;99367.34;5133576;27;20055;-78
2022/05/05 09:17:06;;;;;;;19.70;15.90;;;;;;;13.82;100.00;99375.44;5133640;27;20486;-77
2022/05/05 09:19:37;;;;;;;22.70;15.52;;;;;;;13.73;100.00;99384.81;5133289;27;20047;-78
2022/05/05 09:22:04;;;;;;;20.88;16.73;;;;;;;13.83;100.00;99376.25;5132863;27;20090;-78
2022/05/05 09:24:36;;;;;;;23.38;15.35;;;;;;;13.78;100.00;99371.41;5127879;27;20059;-78
2022/05/05 09:27:18;;;;;;;21.80;16.40;;;;;;;13.79;100.00;99362.19;5128492;27;20133;-77
2022/05/05 09:29:59;;;;;;;21.17;14.80;;;;;;;13.84;100.00;99372.50;5133492;27;20039;-77
2022/05/05 09:32:27;;;;;;;23.27;15.52;;;;;;;13.89;100.00;99392.69;5133439;27;20165;-78
2022/05/05 09:34:58;;;;;;;20.13;15.55;;;;;;;13.98;100.00;99410.63;5135173;27;20043;-77
2022/05/05 09:37:24;;;;;;;21.30;15.98;;;;;;;14.16;100.00;99406.50;5124571;27;20043;-77
2022/05/05 09:39:55;;;;;;;25.27;16.77;;;;;;;14.14;100.00;99373.91;5133015;27;20058;-78
2022/05/05 09:42:39;;;;;;;26.10;16.85;;;;;;;14.72;100.00;99401.94;5128645;27;20171;-78
2022/05/05 09:45:19;;;;;;;24.30;17.25;;;;;;;14.74;100.00;99377.94;5112798;28;20410;-77
2022/05/05 09:47:48;;;;;;;25.20;18.58;;;;;;;14.83;100.00;99404.09;5130691;27;20047;-78
2022/05/05 09:50:15;;;;;;;31.52;21.38;;;;;;;15.08;100.00;99408.97;5133041;27;20050;-78
2022/05/05 09:58:18;;;;;;;27.13;19.55;;;;;;;15.01;100.00;99379.69;5132872;27;20058;-78
2022/05/05 10:00:49;;;;;;;26.60;19.85;;;;;;;15.05;100.00;99391.03;5117430;27;20518;-78
2022/05/05 10:06:22;;;;;;;32.60;20.75;;;;;;;15.38;97.66;99421.19;5132420;27;20077;-78
2022/05/05 10:08:53;;;;;;;29.15;21.08;;;;;;;14.96;96.11;99393.13;5125247;27;20040;-77
2022/05/05 10:11:20;;;;;;;30.10;19.45;;;;;;;15.03;96.92;99391.25;5132074;27;20055;-78
2022/05/05 10:13:49;;;;;;;25.15;19.67;;;;;;;14.99;95.71;99395.44;5115031;27;20058;-78
2022/05/05 10:16:18;;;;;;;31.42;21.70;;;;;;;15.14;95.41;99419.91;5112549;27;20051;-77
2022/05/05 10:18:45;;;;;;;29.25;21.98;;;;;;;14.88;95.49;99396.06;5130347;27;20051;-78
2022/05/05 10:21:31;;;;;;;29.58;20.60;;;;;;;15.21;97.64;99417.19;5132438;27;20058;-75
2022/05/05 10:24:05;;;;;;;30.52;21.58;;;;;;;15.28;98.39;99418.06;5118747;27;20051;-78
2022/05/05 10:26:32;;;;;;;34.78;20.58;;;;;;;15.36;97.39;99414.25;5152931;27;20046;-78
2022/05/05 10:29:01;;;;;;;28.42;21.15;;;;;;;15.30;93.88;99426.06;5152876;27;20505;-75
2022/05/05 10:31:46;;;;;;;33.65;22.02;;;;;;;15.00;95.63;99397.16;5141923;27;20075;-75
2022/05/05 10:34:19;;;;;;;28.17;20.65;;;;;;;15.34;94.13;99410.88;5130236;27;20082;-75
2022/05/05 10:37:04;;;;;;;30.98;21.50;;;;;;;15.30;91.65;99407.72;5123522;27;20479;-77
2022/05/05 10:39:47;;;;;;;28.60;21.05;;;;;;;15.33;97.62;99407.28;5123010;27;20061;-78
2022/05/05 10:42:16;;;;;;;30.40;19.95;;;;;;;15.33;92.71;99396.34;5131521;27;20047;-77
2022/05/05 10:45:12;;;;;;;28.05;19.92;;;;;;;15.29;95.05;99384.09;5130308;27;20053;-78
2022/05/05 10:48:16;;;;;;;32.45;21.35;;;;;;;15.61;90.96;99413.63;5108913;28;20051;-78
2022/05/05 10:50:50;;;;;;;29.30;18.40;;;;;;;15.34;92.40;99387.06;5135743;27;20051;-76
2022/05/05 10:53:27;;;;;;;28.88;19.52;;;;;;;15.49;91.17;99389.59;5127406;27;20490;-76
2022/05/05 10:55:54;;;;;;;29.60;19.23;;;;;;;15.38;89.90;99382.00;5123936;27;20039;-76
2022/05/05 10:58:58;;;;;;;31.70;20.70;;;;;;;15.58;94.22;99415.72;5131691;27;20053;-75
2022/05/05 11:01:26;;;;;;;29.75;20.60;;;;;;;15.88;90.43;99408.97;5131638;27;20043;-76
2022/05/05 11:04:25;;;;;;;25.50;19.88;;;;;;;15.72;87.57;99396.53;5130695;27;20054;-76
2022/05/05 11:07:36;;;;;;;30.95;20.00;;;;;;;15.58;92.30;99409.38;5134238;27;20054;-76
2022/05/05 11:10:05;;;;;;;25.65;20.75;;;;;;;15.78;93.06;99397.59;5123719;27;20047;-76
2022/05/05 11:12:34;;;;;;;24.90;19.60;;;;;;;16.00;87.99;99410.00;5119960;27;20053;-77
2022/05/05 11:23:32;;;;;;;26.67;20.15;;;;;;;16.56;82.99;99411.31;5131666;27;20514;-76
2022/05/05 11:26:00;;;;;;;29.10;19.25;;;;;;;16.28;90.91;99423.44;5123946;27;20052;-76
2022/05/05 11:28:29;;;;;;;32.42;19.60;;;;;;;15.90;97.35;99407.72;5131225;28;20483;-77
2022/05/05 11:30:56;;;;;;;27.08;19.58;;;;;;;15.72;97.86;99410.25;5131733;28;20055;-77
2022/05/05 11:33:24;;;;;;;36.25;19.73;;;;;;;15.62;99.00;99402.44;5130364;28;20043;-77
2022/05/05 11:35:57;;;;;;;29.25;21.15;;;;;;;15.45;97.76;99414.91;5130388;27;20057;-76
2022/05/05 11:38:24;;;;;;;30.77;21.40;;;;;;;15.56;98.79;99414.25;5127867;27;20055;-76
2022/05/05 11:41:08;;;;;;;28.73;20.73;;;;;;;15.83;97.92;99411.53;5111085;28;20247;-76
2022/05/05 11:46:21;;;;;;;32.50;20.75;;;;;;;16.16;94.30;99402.38;5109185;28;20411;-76
2022/05/05 11:48:56;;;;;;;32.70;18.95;;;;;;;16.27;93.74;99413.53;5110933;28;20051;-76
2022/05/05 11:51:24;;;;;;;33.70;21.25;;;;;;;16.69;91.40;99410.38;5112313;28;20054;-76
2022/05/05 11:54:02;;;;;;;28.50;19.45;;;;;;;16.81;92.35;99397.66;5133798;27;20105;-77
2022/05/05 11:56:30;;;;;;;31.75;20.50;;;;;;;16.89;89.63;99393.00;5122566;27;20047;-76